Time;durP1;ratioP1;P1;durP2;ratioP2;P2;SDS_P1;SDS_P2;PMS_P1;PMS_P2;Temp;Humidity;BMP_temperature;BMP_pressure;BME280_temperature;BME280_humidity;BME280_pressure;Samples;Min_cycle;Max_cycle;Signal;HPM_P1;HPM_P2
2023/05/16 00:02:08;;;;;;;14.80;3.57;;;9.10;99.90;;;;;;4959872;28;20591;-70
2023/05/16 00:04:35;;;;;;;17.03;4.37;;;9.10;99.90;;;;;;4975209;28;20117;-70
2023/05/16 00:07:01;;;;;;;17.03;4.40;;;9.10;99.90;;;;;;4959573;28;20093;-70
2023/05/16 00:09:26;;;;;;;14.80;4.67;;;9.10;99.90;;;;;;4989319;28;20051;-70
2023/05/16 00:11:52;;;;;;;16.73;3.63;;;9.10;99.90;;;;;;4958896;28;20058;-70
2023/05/16 00:14:18;;;;;;;14.83;3.80;;;9.00;99.90;;;;;;4985592;28;20542;-70
2023/05/16 00:16:44;;;;;;;20.17;4.50;;;9.00;99.90;;;;;;4975194;28;20049;-70
2023/05/16 00:19:10;;;;;;;13.13;3.67;;;8.90;99.90;;;;;;4956872;28;20042;-69
2023/05/16 00:21:36;;;;;;;11.93;3.87;;;8.90;99.90;;;;;;4975780;28;20141;-70
2023/05/16 00:24:02;;;;;;;17.70;3.93;;;8.90;99.90;;;;;;4975156;28;20055;-70
2023/05/16 00:26:28;;;;;;;14.17;4.07;;;8.90;99.90;;;;;;4975312;28;20053;-70
2023/05/16 00:28:54;;;;;;;17.13;4.37;;;8.90;99.90;;;;;;4973533;28;20484;-70
2023/05/16 00:31:20;;;;;;;15.53;3.70;;;8.90;99.90;;;;;;4961518;28;20215;-70
2023/05/16 00:33:46;;;;;;;18.37;4.13;;;8.90;99.90;;;;;;4981241;28;20081;-70
2023/05/16 00:36:11;;;;;;;25.50;4.40;;;8.80;99.90;;;;;;4982924;28;20090;-70
2023/05/16 00:38:37;;;;;;;16.87;3.97;;;8.80;99.90;;;;;;4978550;28;20042;-70
2023/05/16 00:41:03;;;;;;;19.63;4.00;;;8.80;99.90;;;;;;4961298;28;20042;-70
2023/05/16 00:43:29;;;;;;;19.10;3.83;;;8.80;99.90;;;;;;5010638;28;20125;-70
2023/05/16 00:45:56;;;;;;;13.33;3.33;;;8.70;99.90;;;;;;4996459;28;20073;-70
2023/05/16 00:48:22;;;;;;;19.53;4.40;;;8.70;99.90;;;;;;4962912;28;20042;-69
2023/05/16 00:50:48;;;;;;;11.47;3.33;;;8.60;99.90;;;;;;4962193;28;20470;-70
2023/05/16 00:53:14;;;;;;;13.50;3.60;;;8.60;99.90;;;;;;4947291;28;20057;-69
2023/05/16 00:55:40;;;;;;;14.23;3.67;;;8.50;99.90;;;;;;4930336;28;20050;-69
2023/05/16 00:58:06;;;;;;;16.20;3.47;;;8.50;99.90;;;;;;4962166;28;20069;-69
2023/05/16 01:00:32;;;;;;;17.27;3.77;;;8.50;99.90;;;;;;4976415;28;20057;-69
2023/05/16 01:02:59;;;;;;;12.37;3.50;;;8.40;99.90;;;;;;4960956;28;20926;-70
2023/05/16 01:05:24;;;;;;;13.67;3.50;;;8.40;99.90;;;;;;4978773;28;20046;-69
2023/05/16 01:07:50;;;;;;;11.10;3.60;;;8.40;99.90;;;;;;4977347;28;20050;-69
2023/05/16 01:10:16;;;;;;;16.47;3.37;;;8.40;99.90;;;;;;4943686;28;20102;-69
2023/05/16 01:13:10;;;;;;;20.13;4.20;;;8.40;99.90;;;;;;4962148;28;20053;-70
2023/05/16 01:15:48;;;;;;;12.07;3.87;;;8.40;99.90;;;;;;4995195;28;20105;-70
2023/05/16 01:18:28;;;;;;;17.30;3.90;;;8.40;99.90;;;;;;4985848;28;20101;-70
2023/05/16 01:21:07;;;;;;;18.10;4.00;;;8.30;99.90;;;;;;4979616;28;21017;-69
2023/05/16 01:23:59;;;;;;;12.60;3.27;;;8.30;99.90;;;;;;4988859;28;20050;-69
2023/05/16 01:26:29;;;;;;;14.30;3.17;;;8.30;99.90;;;;;;4961268;28;20054;-69
2023/05/16 01:28:55;;;;;;;10.57;3.00;;;8.20;99.90;;;;;;4976213;28;20039;-69
2023/05/16 01:31:21;;;;;;;10.30;3.10;;;8.20;99.90;;;;;;4950311;28;20042;-71
2023/05/16 01:33:47;;;;;;;9.67;3.00;;;8.20;99.90;;;;;;4963654;28;20452;-69
2023/05/16 01:36:16;;;;;;;11.20;2.80;;;8.30;99.90;;;;;;5000531;28;20053;-69
2023/05/16 01:38:58;;;;;;;13.83;3.33;;;8.30;99.90;;;;;;5005787;28;20061;-72
2023/05/16 01:41:31;;;;;;;14.43;3.27;;;8.30;99.90;;;;;;4986308;28;20046;-69
2023/05/16 01:44:05;;;;;;;12.13;3.40;;;8.20;99.90;;;;;;5000163;28;20077;-69
2023/05/16 01:46:36;;;;;;;13.90;3.27;;;8.20;99.90;;;;;;4977569;28;20054;-70
2023/05/16 01:49:16;;;;;;;11.52;3.03;;;8.20;99.90;;;;;;4978079;28;20073;-70
2023/05/16 01:51:47;;;;;;;12.47;3.13;;;8.20;99.90;;;;;;4944621;28;20459;-70
2023/05/16 01:54:16;;;;;;;12.13;2.83;;;8.20;99.90;;;;;;4995297;28;20086;-70
2023/05/16 01:56:50;;;;;;;14.03;3.17;;;8.20;99.90;;;;;;4977763;28;20061;-69
2023/05/16 01:59:20;;;;;;;14.10;3.20;;;8.20;99.90;;;;;;4961865;28;20046;-70
2023/05/16 02:01:46;;;;;;;10.67;2.70;;;8.10;99.90;;;;;;4991942;28;20097;-70
2023/05/16 02:04:14;;;;;;;12.67;2.90;;;8.10;99.90;;;;;;4959182;28;20046;-70
2023/05/16 02:06:40;;;;;;;13.83;3.10;;;8.10;99.90;;;;;;4961719;28;20096;-70
2023/05/16 02:09:06;;;;;;;10.67;2.70;;;8.10;99.90;;;;;;4977001;28;20043;-70
2023/05/16 02:11:31;;;;;;;11.97;3.37;;;8.10;99.90;;;;;;4976732;28;20116;-70
2023/05/16 02:13:57;;;;;;;15.30;2.93;;;8.00;99.90;;;;;;4940942;28;20053;-70
2023/05/16 02:16:23;;;;;;;14.87;3.23;;;8.00;99.90;;;;;;4960797;28;20050;-70
2023/05/16 02:18:48;;;;;;;10.00;2.83;;;7.90;99.90;;;;;;4942414;28;20034;-70
2023/05/16 02:21:14;;;;;;;12.43;3.00;;;7.90;99.90;;;;;;4999148;28;20054;-70
2023/05/16 02:23:40;;;;;;;11.20;3.17;;;7.90;99.90;;;;;;5005037;28;20077;-69
2023/05/16 02:26:06;;;;;;;12.00;2.80;;;7.90;99.90;;;;;;4949570;28;20110;-70
2023/05/16 02:28:31;;;;;;;9.83;3.10;;;7.90;99.90;;;;;;4958567;28;20114;-69
2023/05/16 02:30:58;;;;;;;13.43;3.07;;;7.80;99.90;;;;;;4966169;28;20054;-70
2023/05/16 02:33:26;;;;;;;10.27;2.80;;;7.90;99.90;;;;;;4975939;28;20088;-70
2023/05/16 02:35:52;;;;;;;11.47;2.90;;;7.90;99.90;;;;;;4974967;28;20058;-70
2023/05/16 02:38:19;;;;;;;9.90;2.53;;;7.90;99.90;;;;;;4994659;28;20053;-70
2023/05/16 02:40:46;;;;;;;11.60;2.77;;;7.80;99.90;;;;;;4961502;28;20110;-70
2023/05/16 02:43:12;;;;;;;12.27;3.20;;;7.90;99.90;;;;;;4976806;28;20080;-70
2023/05/16 02:45:38;;;;;;;10.67;2.57;;;7.80;99.90;;;;;;4961225;28;20053;-70
2023/05/16 02:48:04;;;;;;;11.23;3.17;;;7.80;99.90;;;;;;4969591;28;20054;-70
2023/05/16 02:50:30;;;;;;;11.37;3.10;;;7.80;99.90;;;;;;4960285;28;20038;-70
2023/05/16 02:52:58;;;;;;;13.53;3.33;;;7.80;99.90;;;;;;4994141;28;20043;-70
2023/05/16 02:55:25;;;;;;;10.07;2.70;;;7.80;99.90;;;;;;4992899;28;20050;-70
2023/05/16 02:57:51;;;;;;;14.57;2.97;;;7.70;99.90;;;;;;4976616;28;20058;-70
2023/05/16 03:00:17;;;;;;;12.30;2.87;;;7.70;99.90;;;;;;4960169;28;20042;-70
2023/05/16 03:02:44;;;;;;;11.67;2.73;;;7.70;99.90;;;;;;4960229;28;20046;-70
2023/05/16 03:05:10;;;;;;;14.27;2.80;;;7.70;99.90;;;;;;4995572;28;20125;-70
2023/05/16 03:07:39;;;;;;;14.40;3.07;;;7.70;99.90;;;;;;4970133;28;20042;-70
2023/05/16 03:10:05;;;;;;;12.40;3.07;;;7.70;99.90;;;;;;4996946;28;20038;-70
2023/05/16 03:12:31;;;;;;;7.70;2.70;;;7.80;99.90;;;;;;4985607;28;20072;-69
2023/05/16 03:14:57;;;;;;;10.83;3.20;;;7.80;99.90;;;;;;4974077;28;20046;-70
2023/05/16 03:17:22;;;;;;;13.50;2.87;;;7.80;99.90;;;;;;4946881;28;20046;-70
2023/05/16 03:19:48;;;;;;;9.27;2.80;;;7.90;99.90;;;;;;4943300;28;20092;-70
2023/05/16 03:22:14;;;;;;;12.03;3.40;;;7.80;99.90;;;;;;4975289;28;20094;-70
2023/05/16 03:24:40;;;;;;;9.20;2.73;;;7.90;99.90;;;;;;4943706;28;20112;-69
2023/05/16 03:27:06;;;;;;;12.73;3.63;;;7.90;99.90;;;;;;5001572;28;20042;-70
2023/05/16 03:29:32;;;;;;;11.23;3.13;;;7.90;99.90;;;;;;4960750;28;20046;-70
2023/05/16 03:31:58;;;;;;;12.80;3.00;;;7.90;99.90;;;;;;4960573;28;20361;-70
2023/05/16 03:34:24;;;;;;;9.90;2.67;;;7.80;99.90;;;;;;4944196;28;20133;-70
2023/05/16 03:36:50;;;;;;;11.63;2.93;;;7.80;99.90;;;;;;4982327;28;20078;-70
2023/05/16 03:39:16;;;;;;;14.73;3.27;;;7.80;99.90;;;;;;4943788;28;20051;-69
2023/05/16 03:41:42;;;;;;;11.03;2.93;;;7.80;99.90;;;;;;4975048;28;20047;-70
2023/05/16 03:44:08;;;;;;;14.30;3.23;;;7.80;99.90;;;;;;4975930;28;20052;-70
2023/05/16 03:46:34;;;;;;;10.90;2.73;;;7.80;99.90;;;;;;4974095;28;20061;-70
2023/05/16 03:49:00;;;;;;;11.87;3.07;;;7.80;99.90;;;;;;4942431;28;20430;-70
2023/05/16 03:51:27;;;;;;;9.47;3.40;;;7.80;99.90;;;;;;4974900;28;20061;-69
2023/05/16 03:53:53;;;;;;;11.77;2.70;;;7.90;99.90;;;;;;4960303;28;20335;-70
2023/05/16 03:56:20;;;;;;;13.83;3.17;;;7.90;99.90;;;;;;4996882;28;20646;-69
2023/05/16 03:58:46;;;;;;;12.73;3.20;;;7.90;99.90;;;;;;4993334;28;20123;-70
2023/05/16 04:01:12;;;;;;;15.03;3.20;;;7.90;99.90;;;;;;4975962;28;20062;-70
2023/05/16 04:03:38;;;;;;;8.97;3.07;;;7.90;99.90;;;;;;4943419;28;20105;-70
2023/05/16 04:06:04;;;;;;;13.27;3.73;;;7.80;99.90;;;;;;4959933;28;20054;-70
2023/05/16 04:08:30;;;;;;;15.40;3.30;;;7.80;99.90;;;;;;4963350;28;20180;-70
2023/05/16 04:10:56;;;;;;;11.43;2.90;;;7.80;99.90;;;;;;4979704;28;20117;-70
2023/05/16 04:13:21;;;;;;;9.33;3.10;;;7.80;99.90;;;;;;5000744;28;20110;-70
2023/05/16 04:15:47;;;;;;;9.30;2.63;;;7.70;99.90;;;;;;4963124;28;20046;-70
2023/05/16 04:18:13;;;;;;;11.20;2.57;;;7.70;99.90;;;;;;4977371;28;20046;-70
2023/05/16 04:20:40;;;;;;;10.17;3.10;;;7.70;99.90;;;;;;4962267;28;20069;-70
2023/05/16 04:23:07;;;;;;;13.63;3.17;;;7.80;99.90;;;;;;4978776;28;20042;-70
2023/05/16 04:25:33;;;;;;;13.17;3.10;;;7.80;99.90;;;;;;5004511;28;20042;-70
2023/05/16 04:27:58;;;;;;;15.93;3.20;;;7.80;99.90;;;;;;4945947;28;20058;-70
2023/05/16 04:30:24;;;;;;;11.67;3.07;;;7.80;99.90;;;;;;4956864;28;20058;-70
2023/05/16 04:32:50;;;;;;;10.43;3.40;;;7.80;99.90;;;;;;4977217;28;20137;-70
2023/05/16 04:35:16;;;;;;;9.20;2.87;;;7.80;99.90;;;;;;4965083;28;20441;-69
2023/05/16 04:37:42;;;;;;;11.60;3.00;;;7.80;99.90;;;;;;4955855;28;20110;-69
2023/05/16 04:40:08;;;;;;;12.50;3.33;;;7.90;99.90;;;;;;4980230;28;20047;-69
2023/05/16 04:42:34;;;;;;;11.90;2.97;;;7.90;99.90;;;;;;4980272;28;20089;-71
2023/05/16 04:45:00;;;;;;;9.17;3.30;;;8.00;99.90;;;;;;4961883;28;20755;-70
2023/05/16 04:47:26;;;;;;;13.43;3.23;;;7.90;99.90;;;;;;4958457;28;20038;-70
2023/05/16 04:49:52;;;;;;;8.60;2.80;;;8.00;99.90;;;;;;4944327;28;20420;-70
2023/05/16 04:52:18;;;;;;;13.40;3.47;;;8.00;99.90;;;;;;4959407;28;20466;-69
2023/05/16 04:54:43;;;;;;;8.80;2.77;;;8.00;99.90;;;;;;4954182;28;20077;-70
2023/05/16 04:57:09;;;;;;;9.13;2.90;;;8.00;99.90;;;;;;4980558;28;20050;-70
2023/05/16 04:59:35;;;;;;;13.90;2.70;;;8.00;99.90;;;;;;4960497;28;20046;-70
2023/05/16 05:02:00;;;;;;;11.73;3.10;;;8.10;99.90;;;;;;4981919;28;20078;-70
2023/05/16 05:04:26;;;;;;;10.93;2.83;;;8.10;99.90;;;;;;4954288;28;20135;-70
2023/05/16 05:06:52;;;;;;;11.10;3.13;;;8.20;99.90;;;;;;4975393;28;20047;-70
2023/05/16 05:09:17;;;;;;;7.50;2.93;;;8.20;99.90;;;;;;4960011;28;20406;-70
2023/05/16 05:11:43;;;;;;;8.87;3.30;;;8.20;99.90;;;;;;4968538;28;20251;-70
2023/05/16 05:14:09;;;;;;;12.67;3.17;;;8.30;99.90;;;;;;4986373;28;20055;-70
2023/05/16 05:16:36;;;;;;;13.07;3.17;;;8.40;99.90;;;;;;4977665;28;20121;-70
2023/05/16 05:19:02;;;;;;;11.50;2.97;;;8.40;99.90;;;;;;4956560;28;20047;-70
2023/05/16 05:21:29;;;;;;;14.10;2.90;;;8.50;99.90;;;;;;4948810;28;20038;-70
2023/05/16 05:23:55;;;;;;;14.40;2.93;;;8.60;99.90;;;;;;4976513;28;20059;-70
2023/05/16 05:26:21;;;;;;;9.53;2.50;;;8.60;99.90;;;;;;4945584;28;20062;-70
2023/05/16 05:28:48;;;;;;;11.23;3.20;;;8.70;99.90;;;;;;4976523;28;20186;-71
2023/05/16 05:31:13;;;;;;;7.80;2.90;;;8.80;99.90;;;;;;4977442;28;20077;-70
2023/05/16 05:33:40;;;;;;;12.73;3.23;;;9.00;99.90;;;;;;4941595;28;20129;-70
2023/05/16 05:36:06;;;;;;;11.90;3.03;;;9.10;99.90;;;;;;4976687;28;20110;-70
2023/05/16 05:38:32;;;;;;;8.60;3.00;;;9.20;99.90;;;;;;4945236;28;20050;-70
2023/05/16 05:40:58;;;;;;;11.87;3.37;;;9.30;99.90;;;;;;4976127;28;20500;-70
2023/05/16 05:43:23;;;;;;;9.77;2.73;;;9.40;99.90;;;;;;4952919;28;20058;-70
2023/05/16 05:45:49;;;;;;;9.50;2.53;;;9.50;99.90;;;;;;4960010;28;20042;-70
2023/05/16 05:48:15;;;;;;;9.57;2.50;;;9.50;99.90;;;;;;4976094;28;20102;-70
2023/05/16 05:50:41;;;;;;;9.93;2.50;;;9.60;99.90;;;;;;4958574;28;20042;-70
2023/05/16 05:53:07;;;;;;;10.23;2.47;;;9.70;99.90;;;;;;4974105;28;20110;-70
2023/05/16 05:55:32;;;;;;;8.07;2.07;;;9.80;99.90;;;;;;4961441;28;20604;-70
2023/05/16 05:57:58;;;;;;;9.50;2.50;;;9.90;99.90;;;;;;4961593;28;20078;-70
2023/05/16 06:00:24;;;;;;;8.77;2.10;;;10.10;99.90;;;;;;4977498;28;20133;-70
2023/05/16 06:02:50;;;;;;;12.77;2.70;;;10.20;99.90;;;;;;4976348;28;20070;-70
2023/05/16 06:05:16;;;;;;;9.37;2.63;;;10.20;99.90;;;;;;4995745;28;20038;-70
2023/05/16 06:07:41;;;;;;;9.27;2.53;;;10.30;99.90;;;;;;4977512;28;20125;-70
2023/05/16 06:10:07;;;;;;;11.47;2.53;;;10.30;99.90;;;;;;4945669;28;20073;-70
2023/05/16 06:12:33;;;;;;;9.20;2.30;;;10.30;99.90;;;;;;4974659;28;20046;-70
2023/05/16 06:14:59;;;;;;;7.47;2.33;;;10.40;99.90;;;;;;4960422;28;20057;-70
2023/05/16 06:17:24;;;;;;;10.90;2.37;;;10.50;99.90;;;;;;5003499;28;20138;-70
2023/05/16 06:19:50;;;;;;;11.67;2.33;;;10.60;99.90;;;;;;4995605;28;20494;-71
2023/05/16 06:22:16;;;;;;;8.87;2.30;;;10.80;99.90;;;;;;4946875;28;20078;-80
2023/05/16 06:24:41;;;;;;;11.07;2.67;;;10.80;99.90;;;;;;4945091;28;20047;-71
2023/05/16 06:27:07;;;;;;;7.30;2.10;;;10.90;99.90;;;;;;5003090;28;20051;-70
2023/05/16 06:29:33;;;;;;;7.20;2.10;;;11.00;99.90;;;;;;4937233;28;20124;-70
2023/05/16 06:31:59;;;;;;;10.87;2.27;;;11.00;99.90;;;;;;4961355;28;20129;-68
2023/05/16 06:34:27;;;;;;;6.50;2.20;;;11.10;99.90;;;;;;4974325;28;20065;-70
2023/05/16 06:36:54;;;;;;;8.97;2.30;;;11.20;99.90;;;;;;4956155;28;20042;-69
2023/05/16 06:39:20;;;;;;;9.93;2.20;;;11.20;99.90;;;;;;4976420;28;20050;-68
2023/05/16 06:41:45;;;;;;;12.57;2.70;;;11.30;99.90;;;;;;4993754;28;20058;-69
2023/05/16 06:44:11;;;;;;;6.97;2.40;;;11.30;99.90;;;;;;4960628;28;20053;-69
2023/05/16 06:46:37;;;;;;;7.87;2.40;;;11.30;99.90;;;;;;4994036;28;20101;-69
2023/05/16 06:49:03;;;;;;;8.53;2.50;;;11.30;99.90;;;;;;4960439;28;20042;-69
2023/05/16 06:51:30;;;;;;;5.53;2.60;;;11.30;99.90;;;;;;4994049;28;20046;-69
2023/05/16 06:53:56;;;;;;;11.00;2.43;;;11.30;99.90;;;;;;4976226;28;20050;-69
2023/05/16 06:56:22;;;;;;;9.40;2.53;;;11.40;99.90;;;;;;4994125;28;20039;-69
2023/05/16 06:58:48;;;;;;;10.20;2.13;;;11.40;99.90;;;;;;4993534;28;20034;-69
2023/05/16 07:01:15;;;;;;;7.37;1.90;;;11.50;99.90;;;;;;4976639;28;20053;-69
2023/05/16 07:03:40;;;;;;;7.57;1.97;;;11.50;99.90;;;;;;4960813;28;20050;-69
2023/05/16 07:06:06;;;;;;;6.10;1.80;;;11.50;99.90;;;;;;4960267;28;20046;-69
2023/05/16 07:08:34;;;;;;;7.00;1.90;;;11.60;99.90;;;;;;4959902;28;20034;-69
2023/05/16 07:11:00;;;;;;;6.23;1.77;;;11.70;99.90;;;;;;4978158;28;20047;-69
2023/05/16 07:13:26;;;;;;;5.13;1.47;;;11.80;99.90;;;;;;4973848;28;20050;-69
2023/05/16 07:15:52;;;;;;;7.33;1.40;;;11.70;99.90;;;;;;4975635;28;20165;-69
2023/05/16 07:18:17;;;;;;;5.17;1.23;;;11.40;99.90;;;;;;4978648;28;20077;-69
2023/05/16 07:20:44;;;;;;;9.23;1.47;;;11.40;99.90;;;;;;4993361;28;20262;-68
2023/05/16 07:23:09;;;;;;;6.40;1.60;;;11.50;99.90;;;;;;4976373;28;20061;-68
2023/05/16 07:25:35;;;;;;;3.47;0.97;;;11.70;99.90;;;;;;4975691;28;20125;-68
2023/05/16 07:28:01;;;;;;;3.23;0.87;;;11.80;99.90;;;;;;4993449;28;20110;-69
2023/05/16 07:30:27;;;;;;;5.13;1.20;;;12.00;99.90;;;;;;4975465;28;20042;-68
2023/05/16 07:32:53;;;;;;;6.00;1.37;;;12.00;99.90;;;;;;4993903;28;20031;-69
2023/05/16 07:35:18;;;;;;;6.47;1.40;;;12.20;99.90;;;;;;4944061;28;20050;-68
2023/05/16 07:37:44;;;;;;;7.53;1.30;;;12.50;99.90;;;;;;4993283;28;20560;-68
2023/05/16 07:40:11;;;;;;;5.95;1.40;;;12.50;99.90;;;;;;4976556;28;20439;-69
2023/05/16 07:42:36;;;;;;;5.55;1.30;;;12.40;99.90;;;;;;4997314;28;20042;-69
2023/05/16 07:45:03;;;;;;;5.15;1.80;;;12.10;99.90;;;;;;4963452;28;20053;-69
2023/05/16 07:47:28;;;;;;;6.00;1.30;;;11.90;99.90;;;;;;4979350;28;20068;-68
2023/05/16 07:49:54;;;;;;;4.68;1.20;;;11.70;99.90;;;;;;4978603;28;20125;-68
2023/05/16 07:52:21;;;;;;;5.43;1.40;;;11.80;99.90;;;;;;4963471;28;20050;-68
2023/05/16 07:54:46;;;;;;;8.77;1.70;;;11.90;99.90;;;;;;4975921;28;20078;-70
2023/05/16 07:57:16;;;;;;;4.30;1.30;;;11.90;99.90;;;;;;4946397;28;20054;-69
2023/05/16 07:59:43;;;;;;;10.82;1.80;;;12.10;99.90;;;;;;4979350;28;20047;-68
2023/05/16 08:02:10;;;;;;;6.38;1.55;;;12.00;99.90;;;;;;4997658;28;20046;-68
2023/05/16 08:04:36;;;;;;;3.90;1.75;;;11.80;99.90;;;;;;4978507;28;20042;-69
2023/05/16 08:07:02;;;;;;;5.93;1.80;;;11.80;99.90;;;;;;4978351;28;20034;-69
2023/05/16 08:09:28;;;;;;;9.57;1.80;;;11.90;99.90;;;;;;4963227;28;20038;-69
2023/05/16 08:11:53;;;;;;;6.37;1.80;;;12.00;99.90;;;;;;4961631;28;20045;-69
2023/05/16 08:14:19;;;;;;;7.17;2.00;;;12.10;99.90;;;;;;4964978;28;20050;-69
2023/05/16 08:16:45;;;;;;;8.00;1.60;;;12.10;99.90;;;;;;4980559;28;20037;-69
2023/05/16 08:19:10;;;;;;;7.05;1.98;;;12.30;99.90;;;;;;4958382;28;20026;-69
2023/05/16 08:21:37;;;;;;;6.17;1.87;;;12.50;99.90;;;;;;4978353;28;20349;-69
2023/05/16 08:24:04;;;;;;;6.97;1.80;;;12.60;99.90;;;;;;4997283;28;20067;-69
2023/05/16 08:26:31;;;;;;;7.68;1.90;;;12.70;99.90;;;;;;4979441;28;20102;-68
2023/05/16 08:28:56;;;;;;;5.63;1.60;;;12.80;99.90;;;;;;4962582;28;20387;-69
2023/05/16 08:31:22;;;;;;;6.53;1.58;;;12.90;99.90;;;;;;4996748;28;20042;-69
2023/05/16 08:33:48;;;;;;;6.30;1.58;;;13.00;99.90;;;;;;4995122;28;20042;-69
2023/05/16 08:36:14;;;;;;;7.07;1.60;;;13.20;99.90;;;;;;4962269;28;20286;-69
2023/05/16 08:38:40;;;;;;;4.85;1.80;;;13.20;99.90;;;;;;4960155;28;20066;-69
2023/05/16 08:41:06;;;;;;;4.57;1.83;;;13.20;99.90;;;;;;4960369;28;20038;-69
2023/05/16 08:43:34;;;;;;;6.13;1.42;;;12.90;99.90;;;;;;4948229;28;20035;-69
2023/05/16 08:45:59;;;;;;;4.03;1.52;;;12.60;99.90;;;;;;4990430;28;20042;-69
2023/05/16 08:48:27;;;;;;;7.50;1.60;;;12.70;99.90;;;;;;4939741;28;20077;-70
2023/05/16 08:50:53;;;;;;;6.97;1.60;;;12.90;99.90;;;;;;4978123;28;20410;-69
2023/05/16 08:53:25;;;;;;;5.90;1.70;;;13.20;99.90;;;;;;4979477;28;20038;-70
2023/05/16 08:55:51;;;;;;;;;;;13.40;99.90;;;;;;4976187;28;20077;-69
2023/05/16 08:58:18;;;;;;;9.45;1.55;;;13.50;99.90;;;;;;4978470;28;20314;-69
2023/05/16 09:00:44;;;;;;;6.30;1.77;;;13.60;99.90;;;;;;4961942;28;20290;-69
2023/05/16 09:03:10;;;;;;;6.70;1.60;;;13.30;99.90;;;;;;4978018;28;20243;-69
2023/05/16 09:05:37;;;;;;;7.75;2.13;;;12.90;99.90;;;;;;4944237;28;20093;-69
2023/05/16 09:08:02;;;;;;;9.02;1.85;;;12.60;99.90;;;;;;4962462;28;20094;-69
2023/05/16 09:10:28;;;;;;;7.93;1.77;;;12.40;99.90;;;;;;4946239;28;20073;-68
2023/05/16 09:12:54;;;;;;;5.20;2.10;;;12.00;99.90;;;;;;4978330;28;20049;-69
2023/05/16 09:15:22;;;;;;;5.95;1.55;;;12.00;99.90;;;;;;4995484;28;20078;-68
2023/05/16 09:17:48;;;;;;;6.75;1.60;;;12.10;99.90;;;;;;4978206;28;20076;-69
2023/05/16 09:20:16;;;;;;;5.72;1.75;;;12.30;99.90;;;;;;4977893;28;20050;-69
2023/05/16 09:22:55;;;;;;;5.63;1.85;;;12.60;99.90;;;;;;4995985;28;20061;-69
2023/05/16 09:25:23;;;;;;;8.00;2.30;;;13.00;99.90;;;;;;4977225;28;20053;-69
2023/05/16 09:27:56;;;;;;;4.88;1.73;;;13.20;99.90;;;;;;4975802;28;20146;-69
2023/05/16 09:30:33;;;;;;;7.20;1.40;;;13.40;99.90;;;;;;4994932;28;20133;-69
2023/05/16 09:32:58;;;;;;;7.15;1.70;;;13.60;99.90;;;;;;4977189;28;20046;-70
2023/05/16 09:35:25;;;;;;;7.60;1.80;;;13.60;99.90;;;;;;4978141;28;20082;-69
2023/05/16 09:37:52;;;;;;;5.00;1.58;;;13.40;99.90;;;;;;4993271;28;20109;-69
2023/05/16 09:40:22;;;;;;;7.68;1.70;;;13.20;99.90;;;;;;4974851;28;20049;-69
2023/05/16 09:43:06;;;;;;;5.63;1.45;;;13.20;99.90;;;;;;4969589;28;20621;-69
2023/05/16 09:45:33;;;;;;;6.30;1.70;;;13.50;99.90;;;;;;4973887;28;20065;-69
2023/05/16 09:48:07;;;;;;;8.90;1.73;;;13.60;99.90;;;;;;4945774;28;20046;-69
2023/05/16 09:50:35;;;;;;;4.32;1.10;;;13.80;99.90;;;;;;4975901;28;20604;-69
2023/05/16 09:53:01;;;;;;;5.45;1.20;;;13.90;99.90;;;;;;4960159;28;20050;-69
2023/05/16 09:55:27;;;;;;;5.63;1.38;;;14.20;99.90;;;;;;4992158;28;20057;-69
2023/05/16 09:57:53;;;;;;;5.75;1.77;;;14.40;99.90;;;;;;4995048;28;20038;-69
2023/05/16 10:00:19;;;;;;;4.97;1.40;;;14.40;99.90;;;;;;4977608;28;20070;-68
2023/05/16 10:02:45;;;;;;;4.80;1.42;;;14.40;99.90;;;;;;4983204;28;20085;-68
2023/05/16 10:05:10;;;;;;;9.32;1.70;;;14.50;99.90;;;;;;4976763;28;20053;-68
2023/05/16 10:07:38;;;;;;;3.83;1.55;;;14.50;99.90;;;;;;4994618;28;20097;-67
2023/05/16 10:10:08;;;;;;;3.85;1.17;;;14.30;95.80;;;;;;4977029;28;20042;-68
2023/05/16 10:12:35;;;;;;;4.82;1.45;;;14.20;90.80;;;;;;4960438;28;20587;-67
2023/05/16 10:15:03;;;;;;;6.38;1.83;;;14.10;97.60;;;;;;4998887;28;20391;-67
2023/05/16 10:17:32;;;;;;;9.55;1.73;;;13.70;99.50;;;;;;4980496;28;20060;-68
2023/05/16 10:20:08;;;;;;;6.22;1.65;;;13.60;99.90;;;;;;4992976;28;20085;-67
2023/05/16 10:22:34;;;;;;;4.38;1.40;;;13.80;99.90;;;;;;4995277;28;20042;-67
2023/05/16 10:25:13;;;;;;;7.35;1.60;;;14.10;99.90;;;;;;4994238;28;20520;-68
2023/05/16 10:27:41;;;;;;;5.40;1.40;;;14.30;84.90;;;;;;4991827;28;20096;-68
2023/05/16 10:30:08;;;;;;;6.97;1.30;;;14.40;94.60;;;;;;4976834;28;20096;-68
2023/05/16 10:32:36;;;;;;;6.45;1.20;;;14.30;91.80;;;;;;4976232;28;20125;-67
2023/05/16 10:35:04;;;;;;;7.07;1.60;;;14.30;99.90;;;;;;4994708;28;20049;-67
2023/05/16 10:37:32;;;;;;;5.18;1.40;;;14.10;99.90;;;;;;4993758;28;20050;-67
2023/05/16 10:40:04;;;;;;;4.47;1.30;;;14.10;99.30;;;;;;4994767;28;20116;-67
2023/05/16 10:42:33;;;;;;;4.00;1.20;;;14.10;95.20;;;;;;4976045;28;20034;-67
2023/05/16 10:45:15;;;;;;;4.13;1.20;;;14.20;97.00;;;;;;4993763;28;20415;-67
2023/05/16 10:47:53;;;;;;;5.00;1.20;;;14.30;80.90;;;;;;4996193;28;20054;-68
2023/05/16 10:50:36;;;;;;;6.32;1.10;;;14.30;87.10;;;;;;4974964;28;20049;-67
2023/05/16 10:53:31;;;;;;;4.85;1.35;;;14.40;80.30;;;;;;4999210;28;20141;-67
2023/05/16 10:56:02;;;;;;;3.90;1.10;;;14.40;83.10;;;;;;4959658;28;20155;-68
2023/05/16 10:58:41;;;;;;;3.30;1.30;;;14.50;80.30;;;;;;4957684;28;20042;-68
2023/05/16 11:01:23;;;;;;;4.55;1.50;;;14.40;78.10;;;;;;4976633;28;20054;-67
2023/05/16 11:03:58;;;;;;;4.10;1.52;;;14.30;82.60;;;;;;4957295;28;20061;-68
2023/05/16 11:06:45;;;;;;;4.38;1.70;;;14.30;93.20;;;;;;4975797;28;20469;-67
2023/05/16 11:09:12;;;;;;;6.40;1.30;;;14.10;90.30;;;;;;4993244;28;20557;-68
2023/05/16 11:11:45;;;;;;;6.13;1.23;;;14.10;90.80;;;;;;4974594;28;20070;-68
2023/05/16 11:14:21;;;;;;;7.03;1.55;;;14.40;84.10;;;;;;4976743;28;20133;-68
2023/05/16 11:16:52;;;;;;;5.32;1.30;;;14.60;79.90;;;;;;4993527;28;20094;-68
2023/05/16 11:19:39;;;;;;;5.00;1.47;;;15.00;86.00;;;;;;5004436;28;20203;-68
2023/05/16 11:22:06;;;;;;;4.07;1.70;;;15.30;79.00;;;;;;4946434;28;20298;-68
2023/05/16 11:24:34;;;;;;;5.20;1.55;;;15.20;83.30;;;;;;4992897;28;20042;-68
2023/05/16 11:27:00;;;;;;;4.60;1.42;;;15.30;87.60;;;;;;4959272;28;20145;-68
2023/05/16 11:29:28;;;;;;;5.50;1.23;;;15.10;87.80;;;;;;5007268;28;20052;-67
2023/05/16 11:31:53;;;;;;;3.63;1.10;;;15.00;83.40;;;;;;4970710;28;20041;-68
2023/05/16 11:34:19;;;;;;;5.65;1.17;;;15.10;81.10;;;;;;4995888;28;20050;-68
2023/05/16 11:36:47;;;;;;;6.30;1.45;;;15.00;75.60;;;;;;4990543;28;20046;-68
2023/05/16 11:39:12;;;;;;;4.32;1.30;;;15.00;77.70;;;;;;4975010;28;20053;-68
2023/05/16 11:41:38;;;;;;;4.22;1.20;;;15.00;81.80;;;;;;4959265;28;20058;-68
2023/05/16 11:44:05;;;;;;;3.63;1.33;;;15.00;82.20;;;;;;4960948;28;20042;-68
2023/05/16 11:46:33;;;;;;;6.40;1.42;;;14.90;80.00;;;;;;4972498;28;20142;-67
2023/05/16 11:48:59;;;;;;;5.80;1.48;;;14.80;81.60;;;;;;4974990;28;20042;-67
2023/05/16 11:51:25;;;;;;;5.65;1.92;;;14.50;86.10;;;;;;4958035;28;20081;-68
2023/05/16 11:53:51;;;;;;;6.63;2.00;;;14.70;87.70;;;;;;4974486;28;20089;-68
2023/05/16 11:56:17;;;;;;;4.28;1.25;;;15.00;87.90;;;;;;4992651;28;20042;-68
2023/05/16 11:58:44;;;;;;;7.03;1.90;;;14.90;81.90;;;;;;4973608;28;20143;-68
2023/05/16 12:01:10;;;;;;;3.78;2.03;;;14.80;80.80;;;;;;4992932;28;20056;-68
2023/05/16 12:03:37;;;;;;;4.70;2.00;;;14.50;79.20;;;;;;4991652;28;20125;-67
2023/05/16 12:06:03;;;;;;;5.28;2.22;;;14.40;82.50;;;;;;4998267;28;20054;-68
2023/05/16 12:08:29;;;;;;;5.30;2.20;;;14.30;85.00;;;;;;4978713;28;20433;-67
2023/05/16 12:10:55;;;;;;;5.60;2.55;;;14.30;87.90;;;;;;4992351;28;20113;-68
2023/05/16 12:13:23;;;;;;;4.32;1.98;;;14.40;81.40;;;;;;4975534;28;20046;-68
2023/05/16 12:15:50;;;;;;;6.35;2.35;;;14.30;81.00;;;;;;4974132;28;20080;-68
2023/05/16 12:18:16;;;;;;;7.65;2.50;;;14.40;94.10;;;;;;5001005;28;20449;-68
2023/05/16 12:20:43;;;;;;;7.93;2.35;;;14.80;97.50;;;;;;4962579;28;20126;-67
2023/05/16 12:23:13;;;;;;;6.63;2.22;;;15.10;88.80;;;;;;5002747;28;20090;-67
2023/05/16 12:25:45;;;;;;;5.78;2.40;;;15.10;87.00;;;;;;4961205;28;20422;-68
2023/05/16 12:28:15;;;;;;;6.40;2.50;;;14.70;90.50;;;;;;4978441;28;20058;-68
2023/05/16 12:30:43;;;;;;;5.35;2.30;;;14.20;97.90;;;;;;4964910;28;20051;-68
2023/05/16 12:33:11;;;;;;;10.43;2.88;;;13.90;99.90;;;;;;4997094;28;20498;-68
2023/05/16 12:35:42;;;;;;;7.10;2.28;;;13.70;99.90;;;;;;5000706;28;20053;-68
2023/05/16 12:38:13;;;;;;;7.90;2.97;;;13.90;99.90;;;;;;4979117;28;20061;-69
2023/05/16 12:40:41;;;;;;;8.85;3.05;;;14.10;99.90;;;;;;4995169;28;20505;-68
2023/05/16 12:43:14;;;;;;;5.78;2.60;;;14.10;99.90;;;;;;4996493;28;20043;-68
2023/05/16 12:45:41;;;;;;;6.45;2.78;;;14.10;99.90;;;;;;4996534;28;20046;-69
2023/05/16 12:48:13;;;;;;;9.10;2.75;;;14.20;99.90;;;;;;4979326;28;20612;-69
2023/05/16 12:50:40;;;;;;;5.35;2.60;;;14.10;99.90;;;;;;4981586;28;20408;-69